Terminal Aerodrome Forecast
Issued by NWS Louisville, KY

Home | Current Version | Previous Version | Text Only | Print | Product List | Glossary Off
Versions: 1 2 3 4 5 6 7 8 9 10 11 12 13 14 15 16 17 18 19 20 21 22 23 24 25

000
FTUS43 KLMK 101919 AAA
TAFSDF
TAF AMD
KSDF 101919Z 1019/1124 26008G15KT P6SM SCT035 BKN250
     FM110000 30004KT P6SM BKN080
     FM111400 35005KT P6SM SCT250=

USA.gov is the U.S. government's official web portal to all federal, state and local government web resources and services.